createdAt,value
2018-01-16T00:01:15.297Z,6.30
2018-01-16T00:03:42.794Z,6.30
2018-01-16T00:06:11.072Z,6.40
2018-01-16T00:08:39.331Z,6.40
2018-01-16T00:11:06.858Z,6.40
2018-01-16T00:13:34.582Z,6.40
2018-01-16T00:16:02.828Z,6.50
2018-01-16T00:18:30.310Z,6.50
2018-01-16T00:20:57.821Z,6.60
2018-01-16T00:23:25.333Z,6.60
2018-01-16T00:25:52.839Z,6.60
2018-01-16T00:28:20.345Z,6.50
2018-01-16T00:30:47.870Z,6.60
2018-01-16T00:33:15.408Z,6.70
2018-01-16T00:35:43.666Z,6.70
2018-01-16T00:38:11.146Z,6.70
2018-01-16T00:40:39.433Z,6.80
2018-01-16T00:43:07.686Z,6.70
2018-01-16T00:45:35.182Z,6.80
2018-01-16T00:48:03.458Z,6.70
2018-01-16T00:50:31.746Z,6.70
2018-01-16T00:52:59.221Z,6.70
2018-01-16T00:55:26.730Z,6.80
2018-01-16T00:57:54.239Z,6.80
2018-01-16T01:00:21.730Z,6.80
2018-01-16T01:02:49.255Z,6.90
2018-01-16T01:05:17.523Z,7.00
2018-01-16T01:07:45.769Z,7.10
2018-01-16T01:10:13.296Z,7.00
2018-01-16T01:12:40.791Z,7.10
2018-01-16T01:15:08.279Z,7.10
2018-01-16T01:17:35.796Z,7.20
2018-01-16T01:20:03.274Z,7.20
2018-01-16T01:22:30.795Z,7.20
2018-01-16T01:24:59.054Z,7.30
2018-01-16T01:27:26.580Z,7.30
2018-01-16T01:29:54.126Z,7.30
2018-01-16T01:32:21.606Z,7.30
2018-01-16T01:34:49.091Z,7.40
2018-01-16T01:37:16.606Z,7.30
2018-01-16T01:39:44.109Z,7.40
2018-01-16T01:42:11.617Z,7.40
2018-01-16T01:44:39.865Z,7.50
2018-01-16T01:47:07.360Z,7.50
2018-01-16T01:49:35.652Z,7.50
2018-01-16T01:52:03.194Z,7.50
2018-01-16T01:54:31.446Z,7.50
2018-01-16T01:56:58.965Z,7.50
2018-01-16T01:59:26.501Z,7.40
2018-01-16T02:01:54.757Z,7.50
2018-01-16T02:04:22.246Z,7.50
2018-01-16T02:06:50.521Z,7.60
2018-01-16T02:09:18.036Z,7.60
2018-01-16T02:11:45.521Z,7.70
2018-01-16T02:14:13.047Z,7.70
2018-01-16T02:16:40.570Z,7.70
2018-01-16T02:19:08.097Z,7.70
2018-01-16T02:21:35.577Z,7.80
2018-01-16T02:24:03.054Z,7.80
2018-01-16T02:26:30.565Z,7.80
2018-01-16T02:28:58.102Z,7.90
2018-01-16T02:31:26.359Z,7.90
2018-01-16T02:33:53.838Z,7.90
2018-01-16T02:36:22.121Z,7.90
2018-01-16T02:38:50.370Z,7.80
2018-01-16T02:41:17.898Z,7.80
2018-01-16T02:43:45.375Z,7.80
2018-01-16T02:46:12.905Z,7.80
2018-01-16T02:48:40.453Z,7.80
2018-01-16T02:51:07.938Z,7.80
2018-01-16T02:53:35.415Z,7.80
2018-01-16T02:56:02.944Z,7.80
2018-01-16T02:58:31.183Z,7.90
2018-01-16T03:00:58.694Z,7.90
2018-01-16T03:03:26.978Z,7.70
2018-01-16T03:05:55.268Z,7.70
2018-01-16T03:08:22.798Z,7.70
2018-01-16T03:10:50.324Z,7.70
2018-01-16T03:13:17.802Z,7.60
2018-01-16T03:15:45.317Z,7.60
2018-01-16T03:18:12.838Z,7.60
2018-01-16T03:20:40.323Z,7.70
2018-01-16T03:23:07.802Z,7.70
2018-01-16T03:25:36.095Z,7.60
2018-01-16T03:28:03.579Z,7.60
2018-01-16T03:30:31.094Z,7.60
2018-01-16T03:32:58.576Z,7.50
2018-01-16T03:35:26.126Z,7.50
2018-01-16T03:37:54.400Z,7.40
2018-01-16T03:40:22.726Z,7.30
2018-01-16T03:42:50.406Z,7.30
2018-01-16T03:45:17.912Z,7.20
2018-01-16T03:47:45.446Z,7.20
2018-01-16T03:50:12.926Z,7.10
2018-01-16T03:52:40.404Z,7.00
2018-01-16T03:55:08.701Z,7.00
2018-01-16T03:57:36.954Z,7.00
2018-01-16T04:00:04.433Z,7.00
2018-01-16T04:02:32.725Z,7.20
2018-01-16T04:05:00.201Z,7.20
2018-01-16T04:07:27.694Z,7.20
2018-01-16T04:09:55.203Z,7.30
2018-01-16T04:12:23.450Z,7.20
2018-01-16T04:14:50.966Z,7.20
2018-01-16T04:17:18.447Z,7.10
2018-01-16T04:19:45.989Z,7.10
2018-01-16T04:22:13.465Z,7.00
2018-01-16T04:24:40.946Z,7.10
2018-01-16T04:27:08.458Z,7.10
2018-01-16T04:29:36.701Z,7.30
2018-01-16T04:32:04.217Z,7.30
2018-01-16T04:34:31.741Z,7.30
2018-01-16T04:36:59.225Z,7.30
2018-01-16T04:39:27.535Z,7.20
2018-01-16T04:41:55.026Z,7.20
2018-01-16T04:44:22.546Z,7.30
2018-01-16T04:46:50.789Z,7.40
2018-01-16T04:49:18.286Z,7.40
2018-01-16T04:51:47.362Z,7.50
2018-01-16T04:54:14.841Z,7.50
2018-01-16T04:56:43.101Z,7.60
2018-01-16T04:59:10.613Z,7.50
2018-01-16T05:01:38.125Z,7.60
2018-01-16T05:04:05.613Z,7.70
2018-01-16T05:06:33.889Z,7.70
2018-01-16T05:09:02.157Z,7.70
2018-01-16T05:11:29.685Z,7.70
2018-01-16T05:13:57.189Z,7.80
2018-01-16T05:16:24.689Z,7.80
2018-01-16T05:18:52.204Z,7.80
2018-01-16T05:21:19.686Z,7.80
2018-01-16T05:23:47.935Z,7.70
2018-01-16T05:26:15.473Z,7.70
2018-01-16T05:28:42.951Z,7.70
2018-01-16T05:31:10.437Z,7.70
2018-01-16T05:33:37.954Z,7.60
2018-01-16T05:36:05.471Z,7.50
2018-01-16T05:38:32.958Z,7.50
2018-01-16T05:41:01.211Z,7.50
2018-01-16T05:43:28.730Z,7.50
2018-01-16T05:45:56.229Z,7.50
2018-01-16T05:48:23.815Z,7.40
2018-01-16T05:50:52.071Z,7.50
2018-01-16T05:53:19.559Z,7.50
2018-01-16T05:55:47.825Z,7.60
2018-01-16T05:58:15.346Z,7.60
2018-01-16T06:00:42.836Z,7.60
2018-01-16T06:03:10.446Z,7.80
2018-01-16T06:05:37.932Z,7.80
2018-01-16T06:08:05.441Z,7.90
2018-01-16T06:10:33.769Z,7.90
2018-01-16T06:13:01.267Z,7.80
2018-01-16T06:15:28.753Z,7.70
2018-01-16T06:17:56.291Z,7.60
2018-01-16T06:20:23.825Z,7.50
2018-01-16T06:22:51.309Z,7.50
2018-01-16T06:25:18.911Z,7.50
2018-01-16T06:27:46.401Z,7.50
2018-01-16T06:30:13.904Z,7.40
2018-01-16T06:32:41.446Z,7.30
2018-01-16T06:35:08.925Z,7.30
2018-01-16T06:37:36.400Z,7.40
2018-01-16T06:40:03.922Z,7.40
2018-01-16T06:42:31.420Z,7.30
2018-01-16T06:44:59.019Z,7.40
2018-01-16T06:47:26.505Z,7.50
2018-01-16T06:49:54.752Z,7.50
2018-01-16T06:52:22.281Z,7.50
2018-01-16T06:54:49.766Z,7.50
2018-01-16T06:57:17.274Z,7.50
2018-01-16T06:59:44.809Z,7.50
2018-01-16T07:02:12.305Z,7.60
2018-01-16T07:04:39.833Z,7.50
2018-01-16T07:07:07.334Z,7.60
2018-01-16T07:09:34.847Z,7.60
2018-01-16T07:12:02.331Z,7.60
2018-01-16T07:14:29.856Z,7.60
2018-01-16T07:16:57.381Z,7.50
2018-01-16T07:19:25.635Z,7.60
2018-01-16T07:21:53.172Z,7.60
2018-01-16T07:24:20.665Z,7.60
2018-01-16T07:26:48.197Z,7.60
2018-01-16T07:29:15.686Z,7.70
2018-01-16T07:31:43.172Z,7.70
2018-01-16T07:34:10.711Z,7.70
2018-01-16T07:36:38.233Z,7.80
2018-01-16T07:39:05.727Z,7.80
2018-01-16T07:41:33.291Z,7.70
2018-01-16T07:44:00.788Z,7.80
2018-01-16T07:46:29.068Z,7.80
2018-01-16T07:48:57.349Z,7.80
2018-01-16T07:51:25.604Z,7.90
2018-01-16T07:53:53.125Z,7.80
2018-01-16T07:56:20.657Z,7.80
2018-01-16T07:58:48.904Z,7.80
2018-01-16T08:01:16.410Z,7.70
2018-01-16T08:03:43.946Z,7.80
2018-01-16T08:06:11.458Z,7.90
2018-01-16T08:08:38.967Z,7.80
2018-01-16T08:11:06.453Z,7.60
2018-01-16T08:13:34.739Z,7.50
2018-01-16T08:16:02.994Z,7.40
2018-01-16T08:18:30.491Z,7.40
2018-01-16T08:20:58.021Z,7.20
2018-01-16T08:23:25.533Z,7.10
2018-01-16T08:25:53.017Z,7.00
2018-01-16T08:28:20.542Z,6.80
2018-01-16T08:30:48.071Z,6.70
2018-01-16T08:33:15.607Z,6.60
2018-01-16T08:35:43.110Z,6.50
2018-01-16T08:38:10.582Z,6.50
2018-01-16T08:40:38.876Z,6.30
2018-01-16T08:43:06.401Z,6.30
2018-01-16T08:45:33.933Z,6.30
2018-01-16T08:48:01.421Z,6.20
2018-01-16T08:50:28.950Z,6.30
2018-01-16T08:52:56.444Z,6.20
2018-01-16T08:55:23.937Z,6.30
2018-01-16T08:57:52.212Z,6.30
2018-01-16T09:00:19.720Z,6.30
2018-01-16T09:02:47.228Z,6.30
2018-01-16T09:05:14.713Z,6.50
2018-01-16T09:07:43.023Z,6.60
2018-01-16T09:10:10.502Z,6.60
2018-01-16T09:12:38.003Z,6.60
2018-01-16T09:15:05.541Z,6.60
2018-01-16T09:17:33.120Z,6.90
2018-01-16T09:20:00.613Z,6.90
2018-01-16T09:22:28.890Z,7.00
2018-01-16T09:24:57.145Z,7.00
2018-01-16T09:27:24.671Z,7.00
2018-01-16T09:29:52.157Z,7.10
2018-01-16T09:32:19.690Z,7.20
2018-01-16T09:34:47.186Z,7.30
2018-01-16T09:37:14.674Z,7.30
2018-01-16T09:39:42.207Z,7.50
2018-01-16T09:42:09.692Z,7.60
2018-01-16T09:44:37.217Z,7.50
2018-01-16T09:47:04.705Z,7.60
2018-01-16T09:49:32.214Z,7.50
2018-01-16T09:51:59.705Z,7.40
2018-01-16T09:54:27.219Z,7.40
2018-01-16T09:56:55.522Z,7.20
2018-01-16T09:59:23.057Z,7.20
2018-01-16T10:01:50.537Z,7.20
2018-01-16T10:04:18.824Z,7.30
2018-01-16T10:06:47.079Z,7.30
2018-01-16T10:09:14.614Z,7.30
2018-01-16T10:11:42.094Z,7.40
2018-01-16T10:14:09.578Z,7.50
2018-01-16T10:16:37.099Z,7.60
2018-01-16T10:19:04.598Z,7.70
2018-01-16T10:21:32.123Z,7.70
2018-01-16T10:23:59.639Z,7.70
2018-01-16T10:26:27.937Z,7.70
2018-01-16T10:28:55.418Z,7.70
2018-01-16T10:31:22.906Z,7.90
2018-01-16T10:33:50.419Z,7.90
2018-01-16T10:36:18.695Z,7.90
2018-01-16T10:38:47.018Z,7.90
2018-01-16T10:41:14.515Z,7.90
2018-01-16T10:43:42.005Z,7.90
2018-01-16T10:46:10.300Z,7.90
2018-01-16T10:48:37.768Z,7.80
2018-01-16T10:51:05.306Z,7.80
2018-01-16T10:53:33.553Z,7.70
2018-01-16T10:56:01.038Z,7.70
2018-01-16T10:58:28.561Z,7.70
2018-01-16T11:00:56.098Z,7.70
2018-01-16T11:03:23.576Z,7.70
2018-01-16T11:05:51.053Z,7.50
2018-01-16T11:08:18.561Z,7.50
2018-01-16T11:10:46.863Z,7.40
2018-01-16T11:13:14.343Z,7.30
2018-01-16T11:15:41.836Z,7.30
2018-01-16T11:18:09.738Z,7.30
2018-01-16T11:20:37.989Z,7.30
2018-01-16T11:23:05.510Z,7.40
2018-01-16T11:25:32.998Z,7.40
2018-01-16T11:28:00.527Z,7.20
2018-01-16T11:30:28.017Z,7.20
2018-01-16T11:32:55.535Z,7.20
2018-01-16T11:35:23.775Z,7.20
2018-01-16T11:37:51.295Z,7.20
2018-01-16T11:40:18.816Z,7.20
2018-01-16T11:42:46.315Z,7.20
2018-01-16T11:45:14.613Z,7.20
2018-01-16T11:47:42.107Z,7.10
2018-01-16T11:50:09.581Z,7.20
2018-01-16T11:52:37.097Z,7.20
2018-01-16T11:55:04.636Z,7.10
2018-01-16T11:57:32.897Z,7.20
2018-01-16T12:00:00.380Z,7.20
2018-01-16T12:02:28.680Z,7.30
2018-01-16T12:04:56.172Z,7.30
2018-01-16T12:07:23.655Z,7.20
2018-01-16T12:09:51.153Z,7.20
2018-01-16T12:12:19.430Z,7.30
2018-01-16T12:14:47.687Z,7.30
2018-01-16T12:17:15.184Z,7.30
2018-01-16T12:19:43.481Z,7.50
2018-01-16T12:22:10.976Z,7.50
2018-01-16T12:24:38.496Z,7.40
2018-01-16T12:27:06.750Z,7.00
2018-01-16T12:29:34.286Z,7.00
2018-01-16T12:32:01.769Z,7.10
2018-01-16T12:34:29.251Z,7.00
2018-01-16T12:36:57.533Z,6.90
2018-01-16T12:39:25.788Z,6.90
2018-01-16T12:41:53.323Z,6.90
2018-01-16T12:44:20.815Z,6.90
2018-01-16T12:46:48.312Z,6.90
2018-01-16T12:49:16.593Z,6.90
2018-01-16T12:51:44.845Z,6.90
2018-01-16T12:54:12.364Z,6.80
2018-01-16T12:56:39.874Z,6.80
2018-01-16T12:59:07.399Z,6.60
2018-01-16T13:01:34.945Z,6.50
2018-01-16T13:04:02.442Z,6.40
2018-01-16T13:06:29.960Z,6.20
2018-01-16T13:08:58.283Z,5.90
2018-01-16T13:11:25.778Z,5.80
2018-01-16T13:13:53.267Z,5.90
2018-01-16T13:16:21.569Z,5.80
2018-01-16T13:18:50.259Z,5.80
2018-01-16T13:21:17.957Z,5.80
2018-01-16T13:23:45.487Z,5.90
2018-01-16T13:26:12.985Z,5.90
2018-01-16T13:28:40.509Z,5.80
2018-01-16T13:31:08.012Z,5.70
2018-01-16T13:33:35.525Z,5.70
2018-01-16T13:36:03.010Z,5.70
2018-01-16T13:38:30.518Z,5.60
2018-01-16T13:40:58.059Z,5.60
2018-01-16T13:43:25.546Z,5.50
2018-01-16T13:45:53.040Z,5.50
2018-01-16T13:48:21.317Z,5.60
2018-01-16T13:50:49.618Z,5.60
2018-01-16T13:53:17.140Z,5.60
2018-01-16T13:55:45.467Z,5.60
2018-01-16T13:58:12.950Z,5.60
2018-01-16T14:00:40.431Z,5.70
2018-01-16T14:03:07.978Z,5.60
2018-01-16T14:05:35.470Z,5.60
2018-01-16T14:08:02.962Z,5.70
2018-01-16T14:10:30.481Z,5.70
2018-01-16T14:12:57.973Z,5.80
2018-01-16T14:15:26.265Z,5.80
2018-01-16T14:17:54.626Z,5.90
2018-01-16T14:20:22.137Z,5.90
2018-01-16T14:22:49.672Z,6.10
2018-01-16T14:25:17.923Z,6.10
2018-01-16T14:27:45.423Z,6.10
2018-01-16T14:30:12.954Z,6.10
2018-01-16T14:32:40.473Z,6.20
2018-01-16T14:35:08.012Z,6.20
2018-01-16T14:37:36.262Z,6.30
2018-01-16T14:40:03.765Z,6.30
2018-01-16T14:42:31.277Z,6.30
2018-01-16T14:44:58.778Z,6.30
2018-01-16T14:47:27.050Z,6.20
2018-01-16T14:49:55.327Z,6.20
2018-01-16T14:52:23.616Z,6.10
2018-01-16T14:54:51.916Z,6.20
2018-01-16T14:57:19.430Z,6.20
2018-01-16T14:59:46.950Z,6.10
2018-01-16T15:02:14.450Z,6.20
2018-01-16T15:04:41.981Z,6.20
2018-01-16T15:07:09.477Z,6.10
2018-01-16T15:09:36.961Z,6.00
2018-01-16T15:12:04.486Z,6.00
2018-01-16T15:14:32.305Z,6.00
2018-01-16T15:17:00.595Z,6.00
2018-01-16T15:19:28.854Z,6.00
2018-01-16T15:21:56.374Z,6.00
2018-01-16T15:24:23.870Z,5.90
2018-01-16T15:26:51.432Z,5.90
2018-01-16T15:29:18.976Z,5.90
2018-01-16T15:31:46.460Z,5.80
2018-01-16T15:34:14.006Z,5.80
2018-01-16T15:36:41.510Z,5.80
2018-01-16T15:39:09.774Z,5.60
2018-01-16T15:41:37.314Z,5.60
2018-01-16T15:44:04.800Z,5.60
2018-01-16T15:46:32.286Z,5.60
2018-01-16T15:49:00.580Z,5.50
2018-01-16T15:51:28.073Z,5.60
2018-01-16T15:53:55.612Z,5.60
2018-01-16T15:56:23.114Z,5.50
2018-01-16T15:58:50.655Z,5.50
2018-01-16T16:01:18.139Z,5.30
2018-01-16T16:03:45.654Z,5.30
2018-01-16T16:06:13.937Z,5.10
2018-01-16T16:08:41.421Z,5.10
2018-01-16T16:11:08.957Z,5.10
2018-01-16T16:13:37.214Z,5.00
2018-01-16T16:16:04.697Z,5.00
2018-01-16T16:18:32.988Z,4.90
2018-01-16T16:21:00.482Z,4.90
2018-01-16T16:23:28.013Z,4.80
2018-01-16T16:25:55.497Z,4.70
2018-01-16T16:28:22.989Z,4.60
2018-01-16T16:30:50.534Z,4.60
2018-01-16T16:33:18.025Z,4.70
2018-01-16T16:35:45.521Z,4.70
2018-01-16T16:38:13.810Z,4.60
2018-01-16T16:40:41.333Z,4.60
2018-01-16T16:43:08.857Z,4.60
2018-01-16T16:45:36.402Z,4.60
2018-01-16T16:48:03.923Z,4.60
2018-01-16T16:50:31.438Z,4.60
2018-01-16T16:52:58.937Z,4.60
2018-01-16T16:55:26.522Z,4.60
2018-01-16T16:57:54.013Z,4.60
2018-01-16T17:00:22.275Z,4.70
2018-01-16T17:02:49.806Z,4.70
2018-01-16T17:05:17.285Z,4.70
2018-01-16T17:07:44.809Z,4.80
2018-01-16T17:10:12.337Z,4.90
2018-01-16T17:12:40.614Z,4.90
2018-01-16T17:15:08.890Z,4.90
2018-01-16T17:17:36.421Z,4.90
2018-01-16T17:20:03.909Z,5.00
2018-01-16T17:22:31.453Z,5.00
2018-01-16T17:24:58.941Z,4.90
2018-01-16T17:27:26.476Z,5.00
2018-01-16T17:29:54.005Z,5.00
2018-01-16T17:32:21.542Z,5.10
2018-01-16T17:34:49.814Z,5.20
2018-01-16T17:37:17.302Z,5.20
2018-01-16T17:39:45.595Z,5.20
2018-01-16T17:42:13.091Z,5.20
2018-01-16T17:44:40.594Z,5.20
2018-01-16T17:47:08.858Z,5.20
2018-01-16T17:49:36.349Z,5.20
2018-01-16T17:52:04.634Z,5.30
2018-01-16T17:54:32.893Z,5.30
2018-01-16T17:57:00.393Z,5.30
2018-01-16T17:59:27.998Z,5.30
2018-01-16T18:01:55.485Z,5.20
2018-01-16T18:04:23.790Z,5.40
2018-01-16T18:06:51.318Z,5.40
2018-01-16T18:09:18.807Z,5.30
2018-01-16T18:11:47.093Z,5.30
2018-01-16T18:14:14.602Z,5.30
2018-01-16T18:16:42.110Z,5.20
2018-01-16T18:19:10.406Z,5.10
2018-01-16T18:21:37.894Z,5.10
2018-01-16T18:24:05.430Z,5.10
2018-01-16T18:26:32.934Z,5.00
2018-01-16T18:29:00.425Z,4.90
2018-01-16T18:31:27.965Z,4.80
2018-01-16T18:33:55.449Z,4.90
2018-01-16T18:36:22.977Z,4.80
2018-01-16T18:38:50.505Z,4.90
2018-01-16T18:41:18.759Z,4.80
2018-01-16T18:43:46.283Z,4.80
2018-01-16T18:46:13.813Z,4.70
2018-01-16T18:48:41.345Z,4.70
2018-01-16T18:51:08.841Z,4.60
2018-01-16T20:19:42.981Z,3.20
2018-01-16T20:22:11.319Z,3.40
2018-01-16T20:24:38.878Z,3.40
2018-01-16T20:27:06.367Z,3.40
2018-01-16T20:29:33.913Z,3.40
2018-01-16T20:32:01.426Z,3.50
2018-01-16T20:34:29.700Z,3.40
2018-01-16T20:36:57.230Z,3.40
2018-01-16T20:39:24.773Z,3.40
2018-01-16T20:41:52.267Z,3.30
2018-01-16T20:44:19.753Z,3.40
2018-01-16T20:46:48.071Z,3.50
2018-01-16T20:49:15.560Z,3.50
2018-01-16T20:51:43.082Z,3.60
2018-01-16T20:54:10.573Z,3.60
2018-01-16T20:56:38.125Z,3.70
2018-01-16T20:59:05.654Z,3.70
2018-01-16T21:01:33.214Z,3.70
2018-01-16T21:04:00.775Z,3.70
2018-01-16T21:06:28.287Z,3.70
2018-01-16T21:08:55.849Z,3.70
2018-01-16T21:11:23.485Z,3.70
2018-01-16T21:13:51.756Z,3.60
2018-01-16T21:16:19.327Z,3.60
2018-01-16T21:18:46.855Z,3.50
2018-01-16T21:21:14.339Z,3.50
2018-01-16T21:26:14.714Z,3.30
2018-01-16T21:28:43.028Z,3.20
2018-01-16T21:31:10.743Z,3.20
2018-01-16T21:33:38.268Z,3.20
2018-01-16T21:36:05.844Z,3.30
2018-01-16T21:38:33.321Z,3.30
2018-01-16T21:41:00.869Z,3.40
2018-01-16T21:43:28.387Z,3.40
2018-01-16T21:45:55.952Z,3.40
2018-01-16T21:48:24.247Z,3.40
2018-01-16T21:50:51.775Z,3.40
2018-01-16T21:53:19.288Z,3.40
2018-01-16T21:55:46.852Z,3.40
2018-01-16T21:58:14.360Z,3.40
2018-01-16T22:00:41.931Z,3.40
2018-01-16T22:03:09.457Z,3.50
2018-01-16T22:05:37.002Z,3.40
2018-01-16T22:08:04.553Z,3.30
2018-01-16T22:10:32.059Z,3.40
2018-01-16T22:12:59.593Z,3.50
2018-01-16T22:15:27.164Z,3.40
2018-01-16T22:17:54.647Z,3.40
2018-01-16T22:20:22.193Z,3.50
2018-01-16T22:22:49.707Z,3.50
2018-01-16T22:25:17.249Z,3.60
2018-01-16T22:27:44.750Z,3.80
2018-01-16T22:30:12.662Z,3.80
2018-01-16T22:32:40.231Z,3.80
2018-01-16T22:35:07.770Z,3.60
2018-01-16T22:37:35.289Z,3.60
2018-01-16T22:40:02.936Z,3.50
2018-01-16T22:42:30.432Z,3.40
2018-01-16T22:44:57.980Z,3.30
2018-01-16T22:47:25.469Z,3.30
2018-01-16T22:49:53.011Z,3.20
2018-01-16T22:52:20.517Z,3.20
2018-01-16T22:54:48.813Z,3.30
2018-01-16T22:57:16.374Z,3.30
2018-01-16T22:59:43.867Z,3.30
2018-01-16T23:02:11.366Z,3.40
2018-01-16T23:04:38.918Z,3.50
2018-01-16T23:07:06.406Z,3.50
